Terminal Aerodrome Forecast
Issued by NWS Charleston, WV

Home | Current Version | Previous Version | Text Only | Print | Product List | Glossary On
Versions: 1 2 3 4 5 6 7 8 9 10 11 12 13 14 15 16 17 18 19 20 21 22 23 24
000
FTUS41 KRLX 010200 AAA
TAFHTS
TAF AMD
KHTS 010255Z 0103/0124 29006KT P6SM -RA BKN011 OVC019
     FM010600 33010G16KT 3SM -SHRASN BR OVC007
     FM011300 35011G19KT 5SM -SHRA BR OVC015
     FM011500 33012G20KT P6SM OVC015
     FM012100 33013G20KT P6SM BKN025=

USA.gov is the U.S. government's official web portal to all federal, state and local government web resources and services.